CFG1EC EDNY-EDDM
Flight info
| Callsign | CFG1EC |
|---|---|
| Flight time | N/A |
| Altitude | 19000 |
| Route | BEMKI1W BEMKI T103 BETOS BETOS1B |
| Aircraft | E190/M-SDE3GILORVW/S |
Departure
| Time | 2026-05-03 20:38 |
|---|---|
| Airport | Bodensee Airport Friedrichshafen (EDNY) |
Arrival
| Time | N/A |
|---|---|
| Airport | Munich Airport (EDDM) |
| Time | Latitude | Longitude | Altitude | Speed | Heading |
|---|---|---|---|---|---|
| 2026-05-03 20:37 | 47.67645 | 9.52461 | 1373 ft | 0 kts | 238° |
| 2026-05-03 20:37 | 47.67586 | 9.52314 | 1370 ft | 50 kts | 239° |
| 2026-05-03 20:37 | 47.67288 | 9.51547 | 1361 ft | 119 kts | 240° |
| 2026-05-03 20:37 | 47.66772 | 9.50218 | 1427 ft | 172 kts | 240° |
| 2026-05-03 20:38 | 47.66144 | 9.48616 | 2223 ft | 179 kts | 240° |
| 2026-05-03 20:38 | 47.65458 | 9.46895 | 2844 ft | 219 kts | 242° |
| 2026-05-03 20:38 | 47.64625 | 9.44772 | 3479 ft | 246 kts | 242° |
| 2026-05-03 20:38 | 47.63611 | 9.42785 | 3984 ft | 250 kts | 218° |
| 2026-05-03 20:39 | 47.62013 | 9.42102 | 5078 ft | 237 kts | 175° |
| 2026-05-03 20:39 | 47.60562 | 9.42983 | 6213 ft | 221 kts | 142° |
| 2026-05-03 20:39 | 47.59626 | 9.44750 | 7014 ft | 222 kts | 115° |
| 2026-05-03 20:39 | 47.59418 | 9.47056 | 7610 ft | 235 kts | 85° |
| 2026-05-03 20:40 | 47.59693 | 9.49474 | 8345 ft | 241 kts | 81° |
| 2026-05-03 20:40 | 47.60074 | 9.51924 | 9068 ft | 247 kts | 79° |
| 2026-05-03 20:40 | 47.60496 | 9.54417 | 9810 ft | 252 kts | 79° |
| 2026-05-03 20:40 | 47.60979 | 9.56945 | 10528 ft | 257 kts | 76° |
| 2026-05-03 20:41 | 47.61499 | 9.59579 | 10904 ft | 277 kts | 79° |
| 2026-05-03 20:41 | 47.61933 | 9.62477 | 11248 ft | 299 kts | 81° |
| 2026-05-03 20:41 | 47.62372 | 9.65595 | 11665 ft | 319 kts | 81° |
| 2026-05-03 20:41 | 47.62852 | 9.68856 | 12108 ft | 335 kts | 81° |
| 2026-05-03 20:42 | 47.63361 | 9.72269 | 12883 ft | 342 kts | 80° |
| 2026-05-03 20:42 | 47.63883 | 9.75730 | 13803 ft | 346 kts | 80° |
| 2026-05-03 20:42 | 47.64408 | 9.79228 | 14678 ft | 349 kts | 79° |
| 2026-05-03 20:42 | 47.64938 | 9.82762 | 15592 ft | 352 kts | 79° |
| 2026-05-03 20:43 | 47.65470 | 9.86323 | 16438 ft | 356 kts | 79° |
| 2026-05-03 20:43 | 47.65999 | 9.89899 | 17230 ft | 360 kts | 78° |
| 2026-05-03 20:43 | 47.66448 | 9.93578 | 17970 ft | 365 kts | 86° |
| 2026-05-03 20:43 | 47.66280 | 9.97275 | 18632 ft | 366 kts | 105° |
| 2026-05-03 20:44 | 47.65393 | 10.00830 | 19172 ft | 372 kts | 116° |
| 2026-05-03 20:44 | 47.64266 | 10.04404 | 19216 ft | 389 kts | 117° |
| 2026-05-03 20:44 | 47.63101 | 10.08072 | 19251 ft | 398 kts | 114° |
| 2026-05-03 20:44 | 47.62367 | 10.12060 | 19260 ft | 403 kts | 98° |
| 2026-05-03 20:45 | 47.62432 | 10.16148 | 19052 ft | 396 kts | 76° |
| 2026-05-03 20:45 | 47.63466 | 10.19837 | 19072 ft | 390 kts | 61° |
| 2026-05-03 20:45 | 47.64837 | 10.23400 | 19121 ft | 403 kts | 59° |
| 2026-05-03 20:45 | 47.66244 | 10.26975 | 19154 ft | 409 kts | 59° |
| 2026-05-03 20:46 | 47.67673 | 10.30649 | 19101 ft | 412 kts | 59° |
| 2026-05-03 20:46 | 47.69111 | 10.34329 | 19041 ft | 411 kts | 59° |
| 2026-05-03 20:46 | 47.70532 | 10.38017 | 19038 ft | 412 kts | 60° |
| 2026-05-03 20:46 | 47.71951 | 10.41716 | 19047 ft | 413 kts | 60° |
| 2026-05-03 20:47 | 47.73370 | 10.45423 | 19040 ft | 413 kts | 60° |
| 2026-05-03 20:47 | 47.74784 | 10.49126 | 19041 ft | 413 kts | 60° |
| 2026-05-03 20:47 | 47.76197 | 10.52832 | 19044 ft | 411 kts | 60° |
| 2026-05-03 20:47 | 47.77589 | 10.56487 | 19040 ft | 411 kts | 60° |
| 2026-05-03 20:48 | 47.78999 | 10.60190 | 19035 ft | 413 kts | 60° |
| 2026-05-03 20:48 | 47.80410 | 10.63904 | 19037 ft | 413 kts | 60° |
| 2026-05-03 20:48 | 47.81820 | 10.67628 | 19039 ft | 413 kts | 60° |
| 2026-05-03 20:48 | 47.83231 | 10.71357 | 19044 ft | 413 kts | 60° |
| 2026-05-03 20:49 | 47.84636 | 10.75075 | 19046 ft | 413 kts | 60° |
| 2026-05-03 20:49 | 47.86044 | 10.78804 | 19050 ft | 413 kts | 60° |
| 2026-05-03 20:49 | 47.87449 | 10.82532 | 19054 ft | 413 kts | 60° |
| 2026-05-03 20:49 | 47.88833 | 10.86212 | 19057 ft | 413 kts | 60° |
| 2026-05-03 20:50 | 47.90238 | 10.89949 | 19049 ft | 413 kts | 61° |
| 2026-05-03 20:50 | 47.91638 | 10.93678 | 19058 ft | 412 kts | 61° |
| 2026-05-03 20:50 | 47.93039 | 10.97413 | 19045 ft | 412 kts | 61° |
| 2026-05-03 20:50 | 47.94438 | 11.01151 | 19040 ft | 413 kts | 61° |
| 2026-05-03 20:51 | 47.95835 | 11.04888 | 19035 ft | 413 kts | 61° |
| 2026-05-03 20:51 | 47.97232 | 11.08631 | 19033 ft | 413 kts | 61° |
| 2026-05-03 20:51 | 47.98624 | 11.12366 | 19031 ft | 412 kts | 61° |
| 2026-05-03 20:51 | 47.99998 | 11.16058 | 19026 ft | 412 kts | 61° |
| 2026-05-03 20:52 | 48.01391 | 11.19801 | 19017 ft | 412 kts | 61° |
| 2026-05-03 20:52 | 48.02780 | 11.23542 | 19011 ft | 412 kts | 61° |
| 2026-05-03 20:52 | 48.04168 | 11.27287 | 19014 ft | 412 kts | 61° |
| 2026-05-03 20:52 | 48.05556 | 11.31038 | 19016 ft | 412 kts | 62° |
| 2026-05-03 20:53 | 48.07126 | 11.34601 | 19022 ft | 412 kts | 48° |
| 2026-05-03 20:53 | 48.09231 | 11.37512 | 19050 ft | 413 kts | 39° |
| 2026-05-03 20:53 | 48.11473 | 11.40209 | 19009 ft | 414 kts | 38° |
| 2026-05-03 20:53 | 48.13666 | 11.42860 | 18976 ft | 395 kts | 39° |
| 2026-05-03 20:54 | 48.15734 | 11.45402 | 18815 ft | 388 kts | 39° |
| 2026-05-03 20:54 | 48.19857 | 11.50501 | 17986 ft | 382 kts | 39° |
| 2026-05-03 20:54 | 48.21893 | 11.53038 | 17445 ft | 378 kts | 40° |
| 2026-05-03 20:55 | 48.23888 | 11.55575 | 16926 ft | 373 kts | 43° |
| 2026-05-03 20:55 | 48.25411 | 11.58631 | 16458 ft | 363 kts | 68° |
| 2026-05-03 20:55 | 48.25955 | 11.62214 | 16055 ft | 349 kts | 90° |
| 2026-05-03 20:55 | 48.25972 | 11.65811 | 15566 ft | 343 kts | 92° |
| 2026-05-03 20:56 | 48.26012 | 11.69322 | 15114 ft | 339 kts | 90° |
| 2026-05-03 20:56 | 48.26144 | 11.72830 | 14663 ft | 335 kts | 88° |
| 2026-05-03 20:56 | 48.26329 | 11.76291 | 14241 ft | 332 kts | 88° |
| 2026-05-03 20:56 | 48.26526 | 11.79733 | 13781 ft | 330 kts | 88° |
| 2026-05-03 20:57 | 48.26723 | 11.83152 | 13328 ft | 326 kts | 88° |
| 2026-05-03 20:57 | 48.26923 | 11.86514 | 12916 ft | 321 kts | 88° |
| 2026-05-03 20:57 | 48.27120 | 11.89824 | 12497 ft | 316 kts | 87° |
| 2026-05-03 20:57 | 48.27315 | 11.93084 | 12136 ft | 310 kts | 87° |
| 2026-05-03 20:58 | 48.27508 | 11.96254 | 11583 ft | 298 kts | 87° |
| 2026-05-03 20:58 | 48.27691 | 11.99255 | 11003 ft | 288 kts | 87° |
| 2026-05-03 20:58 | 48.27865 | 12.02220 | 10382 ft | 281 kts | 87° |
| 2026-05-03 20:58 | 48.28028 | 12.05110 | 9772 ft | 275 kts | 87° |
| 2026-05-03 20:59 | 48.28177 | 12.07933 | 9114 ft | 269 kts | 87° |
| 2026-05-03 20:59 | 48.28310 | 12.10707 | 8446 ft | 264 kts | 87° |
| 2026-05-03 20:59 | 48.28423 | 12.13445 | 7836 ft | 261 kts | 87° |
| 2026-05-03 20:59 | 48.28525 | 12.16162 | 7222 ft | 259 kts | 87° |
| 2026-05-03 21:00 | 48.28618 | 12.18855 | 6606 ft | 257 kts | 86° |
| 2026-05-03 21:00 | 48.28792 | 12.20596 | 6195 ft | 254 kts | 71° |
| 2026-05-03 21:00 | 48.30168 | 12.23282 | 5540 ft | 247 kts | 28° |
| 2026-05-03 21:00 | 48.31798 | 12.23947 | 5174 ft | 245 kts | 357° |
| 2026-05-03 21:01 | 48.33393 | 12.23234 | 4929 ft | 238 kts | 322° |
| 2026-05-03 21:01 | 48.34379 | 12.21347 | 5087 ft | 232 kts | 295° |
| 2026-05-03 21:01 | 48.35657 | 12.16866 | 4977 ft | 241 kts | 294° |